Time;durP1;ratioP1;P1;durP2;ratioP2;P2;SDS_P1;SDS_P2;PMS_P1;PMS_P2;Temp;Humidity;BMP_temperature;BMP_pressure;BME280_temperature;BME280_humidity;BME280_pressure;Samples;Min_cycle;Max_cycle;Signal;HPM_P1;HPM_P2
2022/05/31 00:00:01;;;;;;;4.10;2.00;;;;;;;13.96;74.56;99590.91;5011567;28;20104;-62
2022/05/31 00:02:29;;;;;;;3.95;1.63;;;;;;;14.02;74.86;99585.25;5011522;28;20025;-62
2022/05/31 00:04:54;;;;;;;4.78;1.88;;;;;;;14.11;73.79;99580.28;5011378;28;20048;-62
2022/05/31 00:07:20;;;;;;;2.30;1.42;;;;;;;14.07;73.23;99577.81;5011423;28;20034;-62
2022/05/31 00:09:46;;;;;;;2.28;1.65;;;;;;;14.05;73.27;99582.41;5011630;28;20041;-62
2022/05/31 00:12:12;;;;;;;2.65;1.58;;;;;;;14.06;72.95;99576.09;5010942;28;20080;-62
2022/05/31 00:14:39;;;;;;;3.83;1.92;;;;;;;14.03;72.64;99566.44;5011346;28;20037;-62
2022/05/31 00:17:05;;;;;;;6.25;1.90;;;;;;;13.91;72.85;99560.88;5011347;28;20033;-62
2022/05/31 00:19:31;;;;;;;2.55;1.77;;;;;;;13.94;73.10;99574.94;5011268;28;20508;-62
2022/05/31 00:22:16;;;;;;;3.58;1.98;;;;;;;13.90;72.52;99580.56;5010525;28;20061;-62
2022/05/31 00:24:42;;;;;;;3.60;2.00;;;;;;;13.87;73.13;99580.72;5011216;28;20061;-62
2022/05/31 00:27:12;;;;;;;2.80;1.90;;;;;;;13.86;73.51;99581.66;5011370;28;20037;-62
2022/05/31 00:29:37;;;;;;;4.88;2.20;;;;;;;13.86;73.93;99578.97;5011203;28;20026;-62
2022/05/31 00:32:08;;;;;;;4.15;1.80;;;;;;;13.85;74.02;99579.94;5011248;28;20022;-62
2022/05/31 00:34:35;;;;;;;2.75;1.75;;;;;;;13.83;73.82;99576.47;5011205;28;20036;-61
2022/05/31 00:37:01;;;;;;;4.05;2.05;;;;;;;13.81;74.02;99592.59;5011490;28;20442;-62
2022/05/31 00:39:27;;;;;;;2.90;1.90;;;;;;;13.73;74.23;99577.88;5009294;28;20030;-62
2022/05/31 00:42:15;;;;;;;4.53;1.98;;;;;;;13.71;74.62;99571.75;5009560;28;20484;-62
2022/05/31 00:44:41;;;;;;;4.18;2.08;;;;;;;13.72;74.92;99576.16;5009491;28;20052;-62
2022/05/31 00:47:39;;;;;;;4.68;1.70;;;;;;;13.65;74.84;99572.97;5009748;28;20034;-62
2022/05/31 00:50:22;;;;;;;3.45;1.50;;;;;;;13.60;75.44;99579.47;4976307;28;20405;-62
2022/05/31 00:52:50;;;;;;;2.77;1.57;;;;;;;13.52;75.94;99577.22;5009931;28;20374;-62
2022/05/31 00:55:38;;;;;;;4.70;1.70;;;;;;;13.46;76.07;99577.50;5010849;28;20038;-62
2022/05/31 00:58:17;;;;;;;4.53;2.10;;;;;;;13.48;75.67;99582.75;5010993;28;20540;-62
2022/05/31 01:00:43;;;;;;;4.32;1.70;;;;;;;13.42;75.92;99588.44;5011209;28;20085;-62
2022/05/31 01:03:12;;;;;;;5.47;1.90;;;;;;;13.42;75.78;99588.44;5011044;28;20033;-62
2022/05/31 01:05:38;;;;;;;2.80;1.73;;;;;;;13.43;75.26;99590.16;5010637;28;20017;-62
2022/05/31 01:08:03;;;;;;;5.22;2.15;;;;;;;13.44;74.99;99586.56;5010984;28;20018;-62
2022/05/31 01:10:29;;;;;;;3.15;1.77;;;;;;;13.42;75.51;99599.13;5011177;28;20039;-62
2022/05/31 01:12:55;;;;;;;3.33;1.77;;;;;;;13.35;76.10;99587.00;5010813;28;20018;-62
2022/05/31 01:15:21;;;;;;;3.70;1.88;;;;;;;13.37;75.98;99590.47;5010926;28;20068;-62
2022/05/31 01:17:47;;;;;;;2.70;1.60;;;;;;;13.32;75.99;99597.84;5010690;28;20088;-62
2022/05/31 01:20:16;;;;;;;2.60;1.75;;;;;;;13.29;76.31;99600.69;5010634;28;20026;-62
2022/05/31 01:22:41;;;;;;;3.25;1.90;;;;;;;13.31;75.96;99601.47;4993632;28;20411;-62
2022/05/31 01:25:22;;;;;;;3.75;2.40;;;;;;;13.34;76.62;99612.88;5010026;28;20046;-62
2022/05/31 01:27:55;;;;;;;3.45;1.77;;;;;;;13.39;75.11;99609.97;5010738;28;20034;-62
2022/05/31 01:30:21;;;;;;;3.55;1.80;;;;;;;13.47;75.25;99607.75;5010356;28;20113;-62
2022/05/31 01:33:00;;;;;;;2.88;1.90;;;;;;;13.49;74.89;99604.09;5010887;28;20151;-62
2022/05/31 01:35:31;;;;;;;3.72;1.60;;;;;;;13.46;74.86;99590.03;5014068;28;20029;-62
2022/05/31 01:38:10;;;;;;;4.32;1.83;;;;;;;13.54;74.79;99609.19;5014337;28;20121;-62
2022/05/31 01:41:16;;;;;;;2.67;1.70;;;;;;;13.55;73.73;99589.53;5013969;28;20032;-62
2022/05/31 01:43:45;;;;;;;2.33;1.70;;;;;;;13.54;74.40;99593.16;4994390;28;20030;-62
2022/05/31 01:46:16;;;;;;;3.42;1.83;;;;;;;13.52;74.82;99595.03;4994279;28;20077;-62
2022/05/31 01:48:43;;;;;;;2.92;1.67;;;;;;;13.51;74.48;99593.31;4994544;28;20054;-62
2022/05/31 01:51:11;;;;;;;3.08;1.70;;;;;;;13.51;74.62;99598.66;4994429;28;20034;-62
2022/05/31 01:53:36;;;;;;;3.53;1.90;;;;;;;13.49;74.61;99612.09;4994120;28;20505;-62
2022/05/31 01:56:03;;;;;;;3.95;1.98;;;;;;;13.50;74.39;99596.91;4998614;28;20052;-62
2022/05/31 01:58:33;;;;;;;4.28;2.20;;;;;;;13.49;74.83;99598.75;5013976;28;20048;-62
2022/05/31 02:01:01;;;;;;;5.28;1.98;;;;;;;13.44;74.53;99597.25;5013571;28;20041;-62
2022/05/31 02:03:28;;;;;;;2.58;1.80;;;;;;;13.47;74.20;99594.41;5013762;28;20057;-62
2022/05/31 02:05:54;;;;;;;2.78;1.90;;;;;;;13.44;74.89;99594.56;5013373;28;20045;-62
2022/05/31 02:08:21;;;;;;;3.72;2.20;;;;;;;13.41;74.37;99603.59;5012529;28;20022;-62
2022/05/31 02:10:48;;;;;;;4.28;1.80;;;;;;;13.33;74.62;99607.63;5012600;28;20460;-62
2022/05/31 02:13:15;;;;;;;3.75;2.10;;;;;;;13.24;75.14;99606.25;5012824;28;20436;-62
2022/05/31 02:15:41;;;;;;;3.00;1.88;;;;;;;13.15;75.92;99601.34;5012447;28;20017;-62
2022/05/31 02:18:08;;;;;;;3.13;1.70;;;;;;;13.08;76.58;99602.59;5012842;28;20057;-62
2022/05/31 02:20:33;;;;;;;2.80;1.83;;;;;;;13.00;77.25;99602.94;5012450;28;20049;-62
2022/05/31 02:22:59;;;;;;;4.72;2.28;;;;;;;12.92;77.51;99605.13;5011606;28;20444;-62
2022/05/31 02:25:24;;;;;;;3.55;1.90;;;;;;;12.88;78.48;99613.38;5011715;28;20073;-62
2022/05/31 02:27:50;;;;;;;2.65;1.58;;;;;;;12.83;78.87;99613.56;5011910;28;20092;-62
2022/05/31 02:30:16;;;;;;;3.88;2.38;;;;;;;12.79;79.12;99616.47;5011627;28;20022;-62
2022/05/31 02:32:41;;;;;;;5.07;2.15;;;;;;;12.68;79.27;99605.44;5011763;28;20022;-62
2022/05/31 02:35:09;;;;;;;5.95;2.03;;;;;;;12.73;79.52;99612.31;5011362;28;20041;-63
2022/05/31 02:37:35;;;;;;;4.75;2.20;;;;;;;12.72;80.23;99607.88;5013185;28;20041;-62
2022/05/31 02:40:01;;;;;;;3.60;1.92;;;;;;;12.67;80.29;99607.25;5013003;28;20057;-62
2022/05/31 02:42:27;;;;;;;3.92;2.20;;;;;;;12.66;80.31;99613.53;5013065;28;20063;-62
2022/05/31 02:44:53;;;;;;;6.60;2.60;;;;;;;12.70;80.43;99609.75;5011392;28;20413;-62
2022/05/31 02:47:19;;;;;;;3.83;2.00;;;;;;;12.73;80.62;99609.63;5011596;28;20120;-62
2022/05/31 02:49:46;;;;;;;4.65;2.15;;;;;;;12.71;80.24;99608.84;5010777;28;20029;-62
2022/05/31 02:52:11;;;;;;;3.95;2.15;;;;;;;12.68;80.10;99603.66;5011301;28;20522;-62
2022/05/31 02:54:37;;;;;;;5.63;2.22;;;;;;;12.73;80.17;99604.31;5011668;28;20052;-62
2022/05/31 02:57:04;;;;;;;2.90;2.38;;;;;;;12.69;80.90;99608.03;5011083;28;20417;-62
2022/05/31 02:59:30;;;;;;;5.05;1.92;;;;;;;12.65;80.18;99609.09;5011729;28;20044;-62
2022/05/31 03:01:55;;;;;;;4.60;1.90;;;;;;;12.60;80.54;99612.94;5012410;28;20022;-62
2022/05/31 03:04:21;;;;;;;5.22;2.13;;;;;;;12.53;81.21;99607.03;5012421;28;20025;-62
2022/05/31 03:06:46;;;;;;;3.15;1.90;;;;;;;12.46;82.05;99618.94;5012578;28;20088;-62
2022/05/31 03:09:12;;;;;;;4.45;2.47;;;;;;;12.45;81.91;99622.53;5012802;28;20375;-62
2022/05/31 03:11:44;;;;;;;2.78;2.15;;;;;;;12.46;81.91;99613.59;5012362;28;20030;-62
2022/05/31 03:14:15;;;;;;;3.47;2.03;;;;;;;12.37;82.15;99616.66;5012697;28;20125;-62
2022/05/31 03:16:44;;;;;;;2.83;2.08;;;;;;;12.35;82.66;99612.34;5012202;28;20025;-62
2022/05/31 03:19:15;;;;;;;7.63;2.78;;;;;;;12.34;83.01;99613.31;5012459;28;20033;-62
2022/05/31 03:21:48;;;;;;;2.85;1.75;;;;;;;12.32;82.59;99610.69;5012194;28;20121;-62
2022/05/31 03:24:20;;;;;;;4.07;1.90;;;;;;;12.25;83.11;99603.03;5011784;28;20077;-62
2022/05/31 03:26:48;;;;;;;3.58;2.30;;;;;;;12.28;84.02;99606.44;5012173;28;20062;-62
2022/05/31 03:29:13;;;;;;;4.43;2.25;;;;;;;12.25;83.72;99609.25;5011956;28;20040;-62
2022/05/31 03:31:39;;;;;;;3.97;1.95;;;;;;;12.22;84.20;99598.72;5012139;28;20109;-62
2022/05/31 03:34:05;;;;;;;5.82;2.28;;;;;;;12.28;83.43;99598.44;5012191;28;20048;-62
2022/05/31 03:36:31;;;;;;;3.40;1.77;;;;;;;12.28;83.47;99601.09;5012300;28;20034;-62
2022/05/31 03:38:56;;;;;;;4.88;2.50;;;;;;;12.28;83.14;99600.22;5011113;28;20025;-62
2022/05/31 03:41:21;;;;;;;3.67;1.95;;;;;;;12.27;83.17;99593.19;5012193;28;20030;-62
2022/05/31 03:43:47;;;;;;;3.78;1.90;;;;;;;12.21;83.80;99588.97;5011789;28;20038;-62
2022/05/31 03:46:14;;;;;;;3.95;2.22;;;;;;;12.14;84.29;99582.19;5011410;28;20046;-62
2022/05/31 03:48:39;;;;;;;3.55;1.80;;;;;;;12.13;84.46;99572.47;5012097;28;20159;-62
2022/05/31 03:51:08;;;;;;;6.35;2.05;;;;;;;12.10;84.45;99575.28;5011798;28;20104;-62
2022/05/31 03:53:34;;;;;;;3.20;1.90;;;;;;;12.07;84.59;99572.78;5011929;28;20030;-62
2022/05/31 03:56:05;;;;;;;6.13;2.38;;;;;;;12.04;84.23;99582.69;5011002;28;20040;-62
2022/05/31 03:58:31;;;;;;;3.53;2.13;;;;;;;12.08;84.15;99582.47;5009964;28;20018;-62
2022/05/31 04:00:57;;;;;;;2.33;1.70;;;;;;;12.08;83.23;99569.16;5010092;28;20030;-62
2022/05/31 04:03:22;;;;;;;5.90;2.30;;;;;;;12.16;83.11;99582.16;5010219;28;20030;-62
2022/05/31 04:05:49;;;;;;;3.63;2.10;;;;;;;12.21;83.58;99580.16;5010037;28;20382;-62
2022/05/31 04:08:15;;;;;;;4.03;2.33;;;;;;;12.25;83.17;99598.59;5010086;28;20393;-62
2022/05/31 04:10:42;;;;;;;5.32;2.22;;;;;;;12.30;82.53;99588.56;5010088;28;20429;-62
2022/05/31 04:13:09;;;;;;;4.22;2.35;;;;;;;12.31;82.41;99595.63;5011039;28;20129;-62
2022/05/31 04:15:35;;;;;;;3.83;2.15;;;;;;;12.38;82.37;99589.09;5011436;28;20052;-62
2022/05/31 04:18:01;;;;;;;3.45;2.10;;;;;;;12.44;82.68;99591.44;5011189;28;20029;-62
2022/05/31 04:20:27;;;;;;;3.70;2.22;;;;;;;12.54;82.71;99594.53;4993941;28;20026;-62
2022/05/31 04:23:58;;;;;;;3.22;2.15;;;;;;;12.60;82.85;99592.44;5011105;28;20109;-63
2022/05/31 04:25:38;;;;;;;4.30;2.50;;;;;;;12.65;83.24;99585.09;5010736;28;20453;-63
2022/05/31 04:28:03;;;;;;;3.67;2.25;;;;;;;12.81;82.67;99591.44;5011160;28;20037;-63
2022/05/31 04:30:29;;;;;;;3.80;2.53;;;;;;;12.91;82.25;99589.19;5010358;28;20034;-63
2022/05/31 04:32:54;;;;;;;6.30;2.30;;;;;;;13.00;82.23;99597.59;5009981;28;20022;-63
2022/05/31 04:35:19;;;;;;;4.03;2.38;;;;;;;13.13;81.60;99597.88;5009813;28;20189;-63
2022/05/31 04:37:45;;;;;;;5.13;2.15;;;;;;;13.23;81.05;99595.66;5009706;28;20018;-63
2022/05/31 04:40:11;;;;;;;3.85;2.00;;;;;;;13.34;80.53;99595.97;5010596;28;20519;-63
2022/05/31 04:42:37;;;;;;;3.67;1.85;;;;;;;13.46;79.92;99603.38;5011057;28;20088;-63
2022/05/31 04:45:03;;;;;;;4.97;2.13;;;;;;;13.51;78.95;99593.31;5011190;28;20065;-63
2022/05/31 04:47:29;;;;;;;6.95;2.13;;;;;;;13.71;78.58;99603.81;5010675;28;20508;-63
2022/05/31 04:49:54;;;;;;;3.80;2.20;;;;;;;13.82;75.14;99594.31;5011169;28;20076;-63
2022/05/31 04:52:20;;;;;;;4.25;2.05;;;;;;;13.83;76.18;99605.88;5010978;28;20059;-63
2022/05/31 04:54:45;;;;;;;4.75;1.90;;;;;;;13.80;76.97;99606.91;5010925;28;20385;-63
2022/05/31 04:57:10;;;;;;;6.00;2.03;;;;;;;13.89;76.87;99603.75;5010904;28;20054;-63
2022/05/31 04:59:36;;;;;;;4.25;2.35;;;;;;;14.04;76.92;99599.38;5011182;28;20030;-63
2022/05/31 05:02:01;;;;;;;3.30;2.00;;;;;;;14.06;77.63;99608.19;5010906;28;20464;-63
2022/05/31 05:04:27;;;;;;;3.50;2.15;;;;;;;14.09;75.71;99613.38;5011334;28;20076;-63
2022/05/31 05:06:52;;;;;;;2.90;1.75;;;;;;;13.99;75.32;99607.66;5010521;28;20428;-63
2022/05/31 05:09:17;;;;;;;6.43;2.30;;;;;;;14.04;74.90;99615.44;5014142;28;20030;-63
2022/05/31 05:11:45;;;;;;;2.90;1.80;;;;;;;14.02;75.46;99602.16;5014644;28;20021;-63
2022/05/31 05:14:10;;;;;;;7.32;2.45;;;;;;;14.23;75.91;99606.34;5014613;28;20022;-63
2022/05/31 05:16:36;;;;;;;2.75;2.00;;;;;;;14.36;75.54;99612.78;5014857;28;20056;-63
2022/05/31 05:19:02;;;;;;;3.60;2.15;;;;;;;14.44;74.36;99623.97;5014817;28;20392;-63
2022/05/31 05:21:27;;;;;;;4.57;2.50;;;;;;;14.61;73.24;99622.16;5014597;28;20033;-63
2022/05/31 05:23:52;;;;;;;5.82;2.20;;;;;;;14.74;72.10;99624.09;5014565;28;20531;-63
2022/05/31 05:26:21;;;;;;;5.95;2.50;;;;;;;14.77;70.67;99620.38;5014574;28;20061;-63
2022/05/31 05:31:33;;;;;;;4.65;2.58;;;;;;;14.84;70.67;99619.94;5014439;28;20029;-63
2022/05/31 05:34:02;;;;;;;3.78;2.10;;;;;;;15.04;70.38;99633.06;5013868;28;20083;-63
2022/05/31 05:36:29;;;;;;;3.90;2.22;;;;;;;15.32;69.90;99627.00;5013966;28;20022;-63
2022/05/31 05:38:55;;;;;;;4.60;2.25;;;;;;;15.51;68.69;99633.91;5011977;28;20182;-63
2022/05/31 05:41:22;;;;;;;3.63;2.17;;;;;;;15.63;68.19;99629.66;5014492;28;20056;-63
2022/05/31 05:43:48;;;;;;;3.55;2.20;;;;;;;15.57;66.44;99622.81;5014080;28;20033;-63
2022/05/31 05:46:15;;;;;;;4.68;2.30;;;;;;;15.37;67.07;99625.75;5014261;28;20409;-63
2022/05/31 05:48:42;;;;;;;5.82;2.80;;;;;;;15.19;67.46;99626.84;5014074;28;20144;-63
2022/05/31 05:51:28;;;;;;;3.83;2.05;;;;;;;15.17;67.67;99628.72;5013521;28;20045;-63
2022/05/31 05:53:55;;;;;;;4.40;2.40;;;;;;;15.36;66.99;99634.78;5013896;28;20156;-63
2022/05/31 05:56:21;;;;;;;2.30;1.77;;;;;;;15.48;66.16;99634.09;5014069;28;20105;-63
2022/05/31 05:58:46;;;;;;;3.85;2.33;;;;;;;15.57;65.74;99622.81;5013849;28;20053;-63
2022/05/31 06:01:30;;;;;;;5.63;2.40;;;;;;;15.62;66.10;99635.94;5013704;28;20062;-63
2022/05/31 06:04:06;;;;;;;5.80;2.40;;;;;;;15.82;65.91;99632.94;5013919;28;20112;-63
2022/05/31 06:06:33;;;;;;;7.95;2.28;;;;;;;16.00;65.31;99644.38;5013977;28;20026;-63
2022/05/31 06:09:13;;;;;;;4.68;2.72;;;;;;;16.05;63.59;99643.16;5013814;28;20034;-63
2022/05/31 06:11:44;;;;;;;5.57;2.63;;;;;;;16.24;63.57;99645.59;5013672;28;20026;-63
2022/05/31 06:14:16;;;;;;;5.47;2.60;;;;;;;16.42;62.32;99644.44;5013568;28;20030;-63
2022/05/31 06:16:50;;;;;;;4.68;2.20;;;;;;;16.59;61.46;99641.63;5013700;28;20022;-63
2022/05/31 06:19:20;;;;;;;3.92;2.20;;;;;;;16.84;61.18;99636.41;5012987;28;20026;-63
2022/05/31 06:21:48;;;;;;;5.47;2.67;;;;;;;16.93;60.45;99647.41;5012542;28;20022;-63
2022/05/31 06:24:14;;;;;;;4.28;2.42;;;;;;;16.96;60.34;99644.56;5013097;28;20065;-63
2022/05/31 06:26:39;;;;;;;4.00;2.00;;;;;;;17.04;60.00;99635.97;5013500;28;20022;-63
2022/05/31 06:29:05;;;;;;;4.72;2.25;;;;;;;17.15;58.96;99641.50;5013173;28;20406;-63
2022/05/31 06:31:31;;;;;;;4.18;2.08;;;;;;;17.17;58.32;99644.97;5013450;28;20026;-63
2022/05/31 06:33:56;;;;;;;4.00;2.47;;;;;;;17.18;59.32;99651.22;5012101;28;20149;-63
2022/05/31 06:36:21;;;;;;;4.65;2.40;;;;;;;17.13;59.85;99638.09;5011426;28;20425;-63
2022/05/31 06:38:47;;;;;;;3.72;2.10;;;;;;;16.84;60.29;99633.72;5011459;28;20040;-63
2022/05/31 06:41:13;;;;;;;4.25;2.35;;;;;;;16.99;61.17;99635.41;5012919;28;20109;-63
2022/05/31 06:43:39;;;;;;;3.15;2.15;;;;;;;17.22;61.11;99626.72;5013090;28;20029;-63
2022/05/31 06:46:07;;;;;;;3.10;2.15;;;;;;;17.34;60.89;99625.91;5013022;28;20032;-63
2022/05/31 06:48:32;;;;;;;5.35;2.33;;;;;;;17.37;59.64;99623.03;5012517;28;20052;-63
2022/05/31 06:51:02;;;;;;;4.07;2.38;;;;;;;17.56;59.09;99636.97;5004953;28;20375;-63
2022/05/31 06:58:55;;;;;;;5.38;1.92;;;;;;;18.05;57.73;99646.16;5012761;28;20036;-63
2022/05/31 07:01:22;;;;;;;3.65;2.00;;;;;;;18.24;57.29;99646.59;5012938;28;20465;-63
2022/05/31 07:03:48;;;;;;;3.95;2.05;;;;;;;18.43;55.72;99638.16;5012416;28;20033;-63
2022/05/31 07:06:13;;;;;;;4.05;1.77;;;;;;;18.54;53.56;99649.00;5012613;28;20384;-63
2022/05/31 07:08:38;;;;;;;5.72;2.47;;;;;;;18.77;54.40;99652.75;5012654;28;20030;-63
2022/05/31 07:11:06;;;;;;;3.05;1.77;;;;;;;19.06;54.06;99651.53;5012570;28;20054;-63
2022/05/31 07:13:32;;;;;;;3.92;1.92;;;;;;;19.09;52.42;99652.13;5012273;28;20026;-63
2022/05/31 07:16:00;;;;;;;3.78;2.15;;;;;;;19.27;52.56;99649.94;5012605;28;20107;-63
2022/05/31 07:18:25;;;;;;;3.58;2.10;;;;;;;19.67;50.29;99652.28;5012229;28;20033;-63
2022/05/31 07:20:50;;;;;;;7.25;2.17;;;;;;;20.03;50.52;99656.69;5012819;28;20389;-63
2022/05/31 07:23:16;;;;;;;4.70;2.17;;;;;;;20.31;51.17;99652.78;5012393;28;20061;-63
2022/05/31 07:25:41;;;;;;;4.78;1.95;;;;;;;20.43;49.02;99655.38;5011457;28;20437;-63
2022/05/31 07:28:07;;;;;;;3.05;1.83;;;;;;;20.64;47.62;99653.69;5010540;28;20030;-64
2022/05/31 07:30:34;;;;;;;4.57;1.92;;;;;;;21.10;47.89;99644.63;5011180;28;20517;-64
2022/05/31 07:32:59;;;;;;;3.38;2.20;;;;;;;21.36;46.45;99657.72;5010873;28;20559;-63
2022/05/31 07:35:24;;;;;;;6.22;2.20;;;;;;;21.57;45.65;99655.94;5010583;28;20026;-63
2022/05/31 07:37:50;;;;;;;3.28;2.03;;;;;;;21.67;45.53;99639.78;5010650;28;20397;-63
2022/05/31 07:40:15;;;;;;;4.57;2.05;;;;;;;21.77;44.07;99644.34;5010334;28;20029;-63
2022/05/31 07:42:41;;;;;;;4.53;2.20;;;;;;;21.99;44.75;99640.69;5011097;28;20104;-63
2022/05/31 07:45:07;;;;;;;5.88;2.25;;;;;;;22.15;44.36;99643.81;5010017;28;20025;-63
2022/05/31 07:47:32;;;;;;;4.90;2.28;;;;;;;22.34;43.68;99645.78;5010228;28;20473;-63
2022/05/31 07:49:57;;;;;;;3.67;1.67;;;;;;;22.20;44.54;99641.56;5010143;28;20034;-63
2022/05/31 07:52:23;;;;;;;4.50;1.83;;;;;;;22.62;44.06;99640.56;5010735;28;20026;-63
2022/05/31 07:54:48;;;;;;;6.05;2.50;;;;;;;22.99;42.82;99638.16;5010431;28;20038;-63
2022/05/31 07:59:59;;;;;;;8.35;2.25;;;;;;;22.89;42.78;99642.69;5010794;28;20045;-62
2022/05/31 08:02:24;;;;;;;3.08;1.77;;;;;;;23.29;43.15;99636.28;5009826;28;20022;-63
2022/05/31 08:04:50;;;;;;;4.75;2.47;;;;;;;23.14;42.28;99640.38;5009599;28;20029;-63
2022/05/31 08:07:15;;;;;;;3.15;1.92;;;;;;;23.17;42.90;99639.22;5009846;28;20030;-62
2022/05/31 08:09:41;;;;;;;4.25;2.13;;;;;;;23.33;41.52;99632.31;5009447;28;20509;-62
2022/05/31 08:12:10;;;;;;;6.10;2.05;;;;;;;23.92;41.88;99642.25;5009761;28;20255;-63
2022/05/31 08:14:35;;;;;;;4.55;2.05;;;;;;;24.04;41.00;99641.09;5010194;28;20059;-63
2022/05/31 08:17:03;;;;;;;8.00;2.00;;;;;;;23.79;40.60;99633.53;5011738;28;20465;-62
2022/05/31 08:19:29;;;;;;;3.72;1.92;;;;;;;23.85;41.01;99630.22;5011273;28;20057;-62
2022/05/31 08:21:56;;;;;;;4.80;2.22;;;;;;;24.13;40.89;99653.84;5011387;28;20068;-62
2022/05/31 08:24:21;;;;;;;5.93;2.45;;;;;;;23.95;40.91;99645.53;5010863;28;20042;-62
2022/05/31 08:26:47;;;;;;;5.38;2.00;;;;;;;23.93;41.10;99643.94;5011441;28;20041;-62
2022/05/31 08:29:12;;;;;;;4.90;2.50;;;;;;;23.96;40.48;99646.38;5011534;28;20076;-62
2022/05/31 08:31:38;;;;;;;4.00;2.17;;;;;;;23.35;40.12;99634.88;5011046;28;20025;-62
2022/05/31 08:34:07;;;;;;;4.35;2.38;;;;;;;23.23;42.02;99641.38;5011225;28;20033;-62
2022/05/31 08:36:32;;;;;;;3.58;1.67;;;;;;;23.57;41.52;99640.06;5011380;28;20030;-62
2022/05/31 08:38:58;;;;;;;3.65;2.10;;;;;;;23.61;39.81;99643.38;5010948;28;20026;-62
2022/05/31 08:41:38;;;;;;;4.13;1.95;;;;;;;24.38;40.24;99639.66;5011206;28;20022;-62
2022/05/31 08:44:32;;;;;;;4.07;1.95;;;;;;;24.95;38.38;99642.22;5012071;28;20057;-63
2022/05/31 08:47:03;;;;;;;3.03;2.03;;;;;;;25.27;38.34;99637.19;5013943;28;20572;-62
2022/05/31 08:53:04;;;;;;;4.68;1.75;;;;;;;25.81;37.36;99631.69;5013819;28;20037;-63
2022/05/31 08:58:45;;;;;;;3.80;2.08;;;;;;;26.57;35.31;99634.75;5014556;28;20119;-63
2022/05/31 09:01:15;;;;;;;2.70;1.50;;;;;;;26.52;34.28;99627.06;5015025;28;20485;-63
2022/05/31 09:03:48;;;;;;;3.13;1.40;;;;;;;26.54;36.15;99635.09;5013255;28;20021;-63
2022/05/31 09:06:21;;;;;;;3.42;1.90;;;;;;;26.74;35.47;99620.22;5013274;28;20029;-63
2022/05/31 09:09:12;;;;;;;2.78;1.40;;;;;;;26.67;34.11;99641.84;5013036;28;20030;-63
2022/05/31 09:11:48;;;;;;;3.75;1.40;;;;;;;26.42;34.90;99633.63;5012937;28;20385;-63
2022/05/31 09:14:19;;;;;;;5.35;1.90;;;;;;;26.28;35.41;99628.72;5013072;28;20420;-63
2022/05/31 09:16:53;;;;;;;5.00;1.75;;;;;;;26.06;35.32;99629.25;5013315;28;20069;-63
2022/05/31 09:19:35;;;;;;;2.13;1.33;;;;;;;25.97;36.60;99628.28;5014060;28;20037;-63
2022/05/31 09:22:01;;;;;;;1.98;1.30;;;;;;;26.47;36.80;99623.97;5014016;28;20393;-64
2022/05/31 09:24:28;;;;;;;3.03;1.67;;;;;;;26.90;35.86;99623.06;5014040;28;20503;-63
2022/05/31 09:27:11;;;;;;;3.40;1.52;;;;;;;27.52;33.12;99628.13;5013278;28;20072;-63
2022/05/31 09:30:06;;;;;;;3.40;1.30;;;;;;;27.36;33.16;99624.47;5013082;28;20104;-63
2022/05/31 09:32:52;;;;;;;3.40;1.35;;;;;;;27.15;33.32;99624.84;5012619;28;20363;-63
2022/05/31 09:35:20;;;;;;;2.95;1.48;;;;;;;27.45;34.50;99626.19;5012637;28;20493;-63
2022/05/31 09:37:48;;;;;;;2.42;1.13;;;;;;;27.49;34.20;99623.00;5013626;28;20030;-63
2022/05/31 09:40:38;;;;;;;2.30;1.27;;;;;;;27.29;35.04;99621.56;5013774;28;20025;-62
2022/05/31 09:43:04;;;;;;;2.63;1.20;;;;;;;26.93;35.30;99620.00;5013865;28;20543;-62
2022/05/31 09:45:33;;;;;;;5.90;1.50;;;;;;;26.66;36.39;99617.44;5013334;28;20025;-62
2022/05/31 09:48:00;;;;;;;1.27;1.08;;;;;;;26.89;35.83;99613.13;5014214;28;20057;-62
2022/05/31 09:50:28;;;;;;;4.70;1.52;;;;;;;27.28;35.27;99608.06;5013798;28;20030;-63
2022/05/31 09:52:56;;;;;;;2.65;1.58;;;;;;;27.76;34.84;99603.56;5014137;28;20037;-63
2022/05/31 09:58:08;;;;;;;2.75;1.58;;;;;;;27.26;35.17;99610.06;5013878;28;20044;-63
2022/05/31 10:00:55;;;;;;;2.90;1.73;;;;;;;27.82;33.38;99608.38;5013985;28;20032;-63
2022/05/31 10:03:20;;;;;;;3.05;1.63;;;;;;;28.31;33.61;99604.66;5013549;28;20034;-63
2022/05/31 10:05:48;;;;;;;2.97;1.40;;;;;;;28.03;33.60;99597.81;5013767;28;20022;-63
2022/05/31 10:08:34;;;;;;;2.38;1.40;;;;;;;28.33;33.58;99597.13;5012417;28;20030;-63
2022/05/31 10:11:25;;;;;;;4.45;2.05;;;;;;;28.46;33.72;99596.59;5011739;28;20038;-63
2022/05/31 10:13:59;;;;;;;4.10;1.58;;;;;;;27.87;34.33;99592.31;5011826;28;20044;-62
2022/05/31 10:16:32;;;;;;;3.75;1.63;;;;;;;28.10;32.62;99589.78;5011669;28;20481;-62
2022/05/31 10:19:00;;;;;;;3.90;2.03;;;;;;;28.36;33.54;99598.66;5011140;28;20042;-63
2022/05/31 10:21:40;;;;;;;3.38;1.63;;;;;;;29.12;32.50;99593.56;5010254;28;20026;-63
2022/05/31 10:24:21;;;;;;;2.85;1.40;;;;;;;29.71;31.34;99590.16;5011113;28;20083;-63
2022/05/31 10:27:20;;;;;;;5.38;1.30;;;;;;;30.09;30.86;99582.84;5011778;28;20588;-63
2022/05/31 10:29:59;;;;;;;1.92;1.10;;;;;;;30.63;29.65;99582.53;5006869;28;20116;-64
2022/05/31 10:32:27;;;;;;;2.28;1.02;;;;;;;30.91;29.93;99585.50;5011863;28;20018;-64
2022/05/31 10:35:18;;;;;;;2.65;1.20;;;;;;;31.52;29.48;99575.97;5012481;28;20033;-64
2022/05/31 10:37:57;;;;;;;4.88;1.65;;;;;;;30.78;30.13;99572.44;5011965;28;20029;-64
2022/05/31 10:40:52;;;;;;;3.00;1.67;;;;;;;31.03;29.43;99578.50;5012097;28;20032;-64
2022/05/31 10:43:32;;;;;;;4.40;2.03;;;;;;;31.26;28.44;99581.13;5004395;28;20034;-64
2022/05/31 10:46:01;;;;;;;1.65;0.80;;;;;;;30.98;26.97;99582.84;5008359;28;20026;-64
2022/05/31 10:48:27;;;;;;;0.80;0.50;;;;;;;30.82;22.96;99581.16;5011854;28;20025;-64
2022/05/31 10:51:07;;;;;;;2.55;0.70;;;;;;;29.88;24.64;99580.81;5012347;28;20385;-63
2022/05/31 10:53:57;;;;;;;1.35;0.52;;;;;;;29.40;25.76;99583.81;5012910;28;20029;-63
2022/05/31 10:56:42;;;;;;;0.98;0.65;;;;;;;29.10;27.08;99585.50;5012268;28;20026;-63
2022/05/31 10:59:46;;;;;;;1.55;0.70;;;;;;;28.57;28.18;99582.56;5011617;28;20389;-62
2022/05/31 11:02:51;;;;;;;1.08;0.50;;;;;;;28.04;28.46;99579.53;5001776;28;20025;-62
2022/05/31 11:05:21;;;;;;;2.38;1.00;;;;;;;27.67;28.80;99582.72;5012754;28;20112;-62
2022/05/31 11:11:28;;;;;;;2.15;1.17;;;;;;;27.28;30.01;99586.22;5012599;28;20041;-62
2022/05/31 11:13:36;;;;;;;1.67;0.90;;;;;;;27.45;30.33;99582.47;5013127;28;20330;-62
2022/05/31 11:16:14;;;;;;;3.88;1.20;;;;;;;27.59;28.39;99590.91;5012426;28;20040;-62
2022/05/31 11:19:29;;;;;;;1.10;0.80;;;;;;;27.91;29.83;99590.97;4992943;28;20045;-62
2022/05/31 11:22:16;;;;;;;2.20;0.88;;;;;;;28.17;29.19;99594.38;4940248;28;20067;-62
2022/05/31 11:25:04;;;;;;;2.72;1.20;;;;;;;28.03;27.69;99589.63;4992648;28;20417;-62
2022/05/31 11:27:39;;;;;;;1.48;0.80;;;;;;;27.95;27.58;99586.88;5008575;28;20038;-62
2022/05/31 11:30:28;;;;;;;2.25;0.93;;;;;;;29.22;28.97;99588.72;5012256;28;20036;-63
2022/05/31 11:33:23;;;;;;;4.72;0.90;;;;;;;30.72;25.27;99597.03;4981181;28;20373;-63
2022/05/31 11:36:20;;;;;;;16.52;1.60;;;;;;;31.74;26.60;99577.72;5011777;28;20100;-63
2022/05/31 11:38:58;;;;;;;2.47;0.75;;;;;;;32.57;24.71;99586.16;5011731;28;20018;-63
2022/05/31 11:41:41;;;;;;;2.58;0.85;;;;;;;32.97;24.46;99589.00;5011318;28;20436;-63
2022/05/31 11:44:34;;;;;;;2.58;0.93;;;;;;;33.29;23.83;99587.47;5010460;28;20512;-63
2022/05/31 11:47:12;;;;;;;2.05;0.60;;;;;;;33.79;24.02;99576.00;5011955;28;20072;-63
2022/05/31 11:50:08;;;;;;;2.60;1.00;;;;;;;33.49;23.31;99584.81;5011977;28;20444;-63
2022/05/31 11:53:15;;;;;;;1.60;0.68;;;;;;;32.55;23.08;99583.63;4993924;28;20028;-63
2022/05/31 11:56:05;;;;;;;4.20;0.90;;;;;;;32.90;23.22;99582.59;5011714;28;20025;-63
2022/05/31 11:58:48;;;;;;;1.40;0.73;;;;;;;32.97;22.18;99583.50;5011802;28;20194;-63
2022/05/31 12:01:22;;;;;;;0.68;0.60;;;;;;;33.19;22.29;99578.72;5011649;28;20033;-63
2022/05/31 12:04:11;;;;;;;2.60;1.00;;;;;;;33.38;22.46;99575.19;5011762;28;20037;-63
2022/05/31 12:06:48;;;;;;;2.13;0.70;;;;;;;33.04;21.50;99580.78;5011616;28;20105;-63
2022/05/31 12:09:25;;;;;;;1.73;0.75;;;;;;;32.87;21.70;99571.94;5009135;28;20096;-63
2022/05/31 12:12:01;;;;;;;2.22;0.77;;;;;;;31.86;22.44;99566.00;5008971;28;20030;-62
2022/05/31 12:14:28;;;;;;;4.82;0.88;;;;;;;32.07;22.55;99566.03;5009157;28;20427;-62